createdAt,value
2018-09-08T00:00:02.397Z,72.96
2018-09-08T00:03:06.237Z,71.82
2018-09-08T00:06:10.059Z,71.40
2018-09-08T00:09:13.690Z,71.76
2018-09-08T00:12:17.348Z,72.43
2018-09-08T00:15:26.127Z,72.07
2018-09-08T00:18:35.054Z,72.28
2018-09-08T00:21:43.669Z,72.79
2018-09-08T00:24:52.549Z,71.77
2018-09-08T00:28:32.451Z,72.04
2018-09-08T00:31:36.132Z,71.77
2018-09-08T00:34:40.146Z,71.82
2018-09-08T00:37:44.524Z,71.08
2018-09-08T00:40:48.117Z,71.45
2018-09-08T00:43:51.789Z,70.42
2018-09-08T00:46:55.538Z,70.05
2018-09-08T00:49:59.171Z,70.13
2018-09-08T00:53:02.822Z,70.18
2018-09-08T00:56:07.242Z,69.83
2018-09-08T00:59:10.777Z,70.05
2018-09-08T01:02:14.544Z,70.52
2018-09-08T01:05:18.218Z,70.35
2018-09-08T01:08:21.762Z,69.47
2018-09-08T01:11:25.727Z,69.79
2018-09-08T01:14:29.317Z,69.97
2018-09-08T01:17:33.050Z,69.76
2018-09-08T01:20:36.644Z,70.18
2018-09-08T01:23:40.424Z,69.26
2018-09-08T01:26:44.105Z,69.52
2018-09-08T01:29:47.760Z,69.67
2018-09-08T01:32:51.323Z,69.89
2018-09-08T01:35:55.280Z,69.43
2018-09-08T01:38:58.923Z,69.65
2018-09-08T01:42:02.510Z,70.27
2018-09-08T01:45:06.464Z,68.84
2018-09-08T01:48:10.155Z,69.64
2018-09-08T01:51:13.723Z,69.42
2018-09-08T01:54:17.358Z,68.87
2018-09-08T01:57:20.971Z,68.83
2018-09-08T02:00:24.594Z,69.30
2018-09-08T02:03:28.204Z,69.54
2018-09-08T02:06:31.794Z,69.63
2018-09-08T02:09:35.436Z,69.40
2018-09-08T02:12:39.105Z,69.47
2018-09-08T02:15:42.730Z,69.60
2018-09-08T02:18:46.344Z,70.56
2018-09-08T02:21:50.014Z,71.18
2018-09-08T02:24:53.834Z,70.48
2018-09-08T02:27:57.384Z,71.19
2018-09-08T02:31:01.336Z,71.74
2018-09-08T02:34:04.986Z,71.37
2018-09-08T02:37:08.556Z,71.24
2018-09-08T02:40:12.176Z,70.66
2018-09-08T02:43:15.882Z,71.53
2018-09-08T02:46:19.489Z,71.47
2018-09-08T02:49:23.770Z,71.75
2018-09-08T02:52:26.158Z,72.46
2018-09-08T02:55:28.943Z,72.41
2018-09-08T02:58:31.274Z,73.01
2018-09-08T03:01:33.779Z,72.53
2018-09-08T03:04:36.070Z,72.50
2018-09-08T03:07:38.433Z,72.63
2018-09-08T03:10:40.739Z,72.94
2018-09-08T03:13:43.088Z,73.17
2018-09-08T03:16:45.374Z,74.03
2018-09-08T03:19:47.716Z,74.24
2018-09-08T03:22:50.026Z,73.85
2018-09-08T03:25:52.349Z,73.47
2018-09-08T03:28:54.760Z,73.20
2018-09-08T03:31:57.081Z,73.22
2018-09-08T03:34:59.396Z,73.86
2018-09-08T03:38:01.842Z,74.20
2018-09-08T03:41:04.158Z,73.85
2018-09-08T03:44:06.537Z,73.29
2018-09-08T03:47:08.835Z,74.07
2018-09-08T03:50:11.246Z,73.95
2018-09-08T03:53:13.664Z,73.84
2018-09-08T03:56:15.964Z,74.01
2018-09-08T03:59:18.281Z,74.39
2018-09-08T04:02:20.571Z,75.03
2018-09-08T04:05:24.155Z,74.83
2018-09-08T04:08:27.845Z,74.52
2018-09-08T04:11:31.482Z,74.27
2018-09-08T04:14:36.047Z,74.72
2018-09-08T04:17:40.096Z,74.94
2018-09-08T04:20:43.791Z,74.90
2018-09-08T04:23:47.320Z,74.90
2018-09-08T04:26:51.825Z,74.96
2018-09-08T04:29:55.479Z,75.39
2018-09-08T04:32:59.155Z,75.90
2018-09-08T04:36:03.507Z,75.60
2018-09-08T04:39:09.335Z,75.39
2018-09-08T04:42:12.939Z,76.04
2018-09-08T04:45:16.656Z,76.20
2018-09-08T04:48:20.336Z,76.58
2018-09-08T04:51:23.977Z,76.46
2018-09-08T04:54:27.667Z,76.61
2018-09-08T04:57:31.320Z,76.16
2018-09-08T05:00:35.341Z,76.36
2018-09-08T05:03:39.771Z,76.58
2018-09-08T05:06:43.430Z,75.80
2018-09-08T05:09:47.042Z,75.85
2018-09-08T05:12:50.727Z,75.78
2018-09-08T05:15:54.291Z,74.81
2018-09-08T05:18:57.912Z,74.20
2018-09-08T05:22:01.502Z,72.82
2018-09-08T05:25:05.180Z,71.92
2018-09-08T05:28:08.770Z,72.59
2018-09-08T05:31:12.395Z,72.19
2018-09-08T05:34:16.011Z,70.91
2018-09-08T05:37:19.620Z,70.82
2018-09-08T05:40:23.247Z,70.98
2018-09-08T05:43:26.918Z,70.38
2018-09-08T05:46:30.512Z,70.15
2018-09-08T05:49:34.197Z,70.76
2018-09-08T05:52:37.891Z,72.19
2018-09-08T05:55:41.513Z,72.67
2018-09-08T05:58:45.167Z,72.91
2018-09-08T06:01:48.759Z,68.73
2018-09-08T06:04:52.394Z,65.04
2018-09-08T06:07:56.076Z,62.41
2018-09-08T06:10:59.716Z,61.77
2018-09-08T06:14:03.471Z,62.04
2018-09-08T06:17:07.140Z,64.65
2018-09-08T06:20:10.770Z,63.87
2018-09-08T06:23:14.421Z,63.21
2018-09-08T06:26:18.113Z,62.62
2018-09-08T06:29:21.783Z,62.79
2018-09-08T06:32:25.381Z,62.67
2018-09-08T06:35:29.191Z,65.45
2018-09-08T06:38:32.813Z,62.49
2018-09-08T06:41:36.573Z,63.87
2018-09-08T06:44:40.307Z,65.83
2018-09-08T06:47:44.054Z,67.39
2018-09-08T06:50:47.721Z,67.09
2018-09-08T06:53:51.363Z,68.63
2018-09-08T06:56:55.158Z,67.65
2018-09-08T06:59:58.815Z,67.65
2018-09-08T07:03:02.488Z,68.65
2018-09-08T07:06:06.182Z,68.16
2018-09-08T07:09:11.072Z,67.64
2018-09-08T07:12:14.718Z,67.56
2018-09-08T07:15:18.635Z,67.75
2018-09-08T07:18:22.198Z,67.86
2018-09-08T07:21:25.800Z,68.51
2018-09-08T07:24:29.572Z,69.01
2018-09-08T07:27:33.144Z,68.73
2018-09-08T07:30:36.792Z,68.25
2018-09-08T07:33:40.392Z,67.69
2018-09-08T07:36:44.748Z,67.57
2018-09-08T07:39:48.457Z,67.99
2018-09-08T07:42:52.219Z,68.15
2018-09-08T07:45:55.979Z,68.69
2018-09-08T07:48:59.603Z,66.72
2018-09-08T07:52:03.288Z,66.29
2018-09-08T07:55:06.929Z,67.25
2018-09-08T07:58:10.549Z,66.95
2018-09-08T08:01:14.374Z,66.73
2018-09-08T08:04:17.970Z,67.19
2018-09-08T08:07:21.642Z,65.29
2018-09-08T08:10:25.433Z,65.18
2018-09-08T08:13:29.027Z,65.07
2018-09-08T08:16:32.721Z,65.29
2018-09-08T08:19:37.020Z,64.38
2018-09-08T08:22:40.712Z,64.03
2018-09-08T08:25:44.362Z,64.26
2018-09-08T08:28:48.109Z,62.87
2018-09-08T08:31:51.769Z,62.71
2018-09-08T08:34:55.467Z,62.52
2018-09-08T08:37:59.225Z,62.41
2018-09-08T08:41:02.945Z,61.35
2018-09-08T08:44:06.857Z,63.34
2018-09-08T08:47:10.568Z,60.59
2018-09-08T08:50:25.218Z,61.53
2018-09-08T08:53:40.229Z,59.98
2018-09-08T08:56:43.850Z,59.08
2018-09-08T08:59:47.646Z,59.10
2018-09-08T09:02:51.454Z,59.75
2018-09-08T09:05:55.129Z,59.08
2018-09-08T09:08:58.845Z,59.20
2018-09-08T09:12:02.492Z,59.11
2018-09-08T09:15:06.313Z,57.69
2018-09-08T09:18:10.348Z,57.39
2018-09-08T09:21:25.137Z,57.65
2018-09-08T09:24:56.537Z,57.85
2018-09-08T09:28:00.128Z,57.44
2018-09-08T09:31:03.878Z,57.37
2018-09-08T09:34:07.625Z,57.38
2018-09-08T09:37:11.485Z,56.11
2018-09-08T09:40:16.593Z,55.99
2018-09-08T09:43:20.448Z,55.92
2018-09-08T09:46:24.095Z,55.13
2018-09-08T09:49:27.840Z,55.34
2018-09-08T09:52:31.386Z,53.80
2018-09-08T09:55:35.248Z,54.43
2018-09-08T09:58:39.059Z,54.05
2018-09-08T10:01:44.199Z,53.73
2018-09-08T10:04:47.836Z,54.49
2018-09-08T10:07:52.096Z,53.96
2018-09-08T10:10:55.780Z,52.62
2018-09-08T10:13:59.512Z,51.80
2018-09-08T10:17:03.322Z,52.54
2018-09-08T10:20:08.841Z,51.09
2018-09-08T10:23:12.590Z,51.09
2018-09-08T10:26:16.216Z,50.06
2018-09-08T10:29:19.844Z,50.75
2018-09-08T10:32:23.890Z,52.16
2018-09-08T10:35:27.653Z,50.37
2018-09-08T10:38:31.296Z,50.61
2018-09-08T10:41:35.084Z,50.32
2018-09-08T10:44:38.791Z,50.74
2018-09-08T10:47:42.474Z,50.55
2018-09-08T10:50:46.207Z,50.90
2018-09-08T10:53:49.826Z,51.27
2018-09-08T10:56:53.574Z,50.77
2018-09-08T10:59:57.501Z,50.13
2018-09-08T11:03:01.231Z,49.99
2018-09-08T11:06:05.077Z,50.32
2018-09-08T11:09:08.762Z,49.53
2018-09-08T11:12:12.604Z,49.00
2018-09-08T11:15:16.409Z,48.75
2018-09-08T11:18:20.161Z,49.24
2018-09-08T11:21:24.587Z,49.16
2018-09-08T11:24:28.270Z,49.07
2018-09-08T11:27:31.916Z,49.12
2018-09-08T11:30:35.706Z,48.45
2018-09-08T11:33:39.307Z,49.12
2018-09-08T11:36:43.115Z,48.23
2018-09-08T11:39:46.876Z,48.62
2018-09-08T11:42:51.771Z,47.91
2018-09-08T11:45:55.405Z,44.94
2018-09-08T11:48:59.115Z,45.18
2018-09-08T11:52:02.911Z,45.31
2018-09-08T11:55:06.777Z,46.24
2018-09-08T11:58:10.426Z,45.01
2018-09-08T12:01:14.316Z,44.75
2018-09-08T12:04:17.980Z,44.53
2018-09-08T12:07:21.687Z,44.70
2018-09-08T12:10:25.396Z,44.73
2018-09-08T12:13:29.133Z,44.82
2018-09-08T12:16:32.774Z,44.28
2018-09-08T12:19:36.497Z,44.34
2018-09-08T12:22:40.172Z,43.92
2018-09-08T12:25:43.892Z,44.90
2018-09-08T12:28:47.582Z,44.05
2018-09-08T12:31:51.332Z,43.82
2018-09-08T12:34:55.115Z,45.46
2018-09-08T12:37:58.807Z,43.44
2018-09-08T12:41:02.634Z,44.03
2018-09-08T12:44:06.487Z,43.53
2018-09-08T12:47:10.077Z,43.22
2018-09-08T12:50:13.758Z,44.66
2018-09-08T12:53:17.431Z,43.08
2018-09-08T12:56:21.204Z,44.59
2018-09-08T12:59:24.965Z,44.13
2018-09-08T13:02:28.901Z,44.30
2018-09-08T13:05:32.782Z,43.89
2018-09-08T13:08:36.442Z,44.25
2018-09-08T13:11:40.447Z,43.97
2018-09-08T13:14:44.360Z,44.85
2018-09-08T13:17:50.263Z,45.40
2018-09-08T13:20:54.057Z,45.19
2018-09-08T13:23:57.809Z,44.50
2018-09-08T13:27:01.600Z,45.30
2018-09-08T13:30:05.946Z,45.04
2018-09-08T13:33:09.771Z,45.35
2018-09-08T13:36:13.441Z,43.92
2018-09-08T13:39:17.528Z,45.39
2018-09-08T13:42:21.249Z,45.86
2018-09-08T13:45:24.958Z,45.67
2018-09-08T13:48:28.624Z,45.07
2018-09-08T13:51:32.344Z,45.71
2018-09-08T13:54:36.171Z,45.22
2018-09-08T13:57:39.839Z,44.86
2018-09-08T14:00:43.510Z,42.69
2018-09-08T14:03:47.239Z,43.13
2018-09-08T14:06:51.060Z,43.89
2018-09-08T14:09:54.644Z,43.99
2018-09-08T14:12:58.409Z,43.51
2018-09-08T14:16:02.117Z,44.94
2018-09-08T14:19:06.228Z,45.56
2018-09-08T14:22:09.901Z,45.60
2018-09-08T14:25:13.630Z,44.98
2018-09-08T14:28:18.446Z,44.11
2018-09-08T14:31:22.251Z,44.69
2018-09-08T14:34:25.924Z,45.44
2018-09-08T14:37:29.582Z,45.17
2018-09-08T14:40:33.360Z,45.73
2018-09-08T14:43:37.132Z,45.96
2018-09-08T14:46:40.763Z,47.13
2018-09-08T14:49:44.444Z,48.01
2018-09-08T14:52:48.397Z,47.54
2018-09-08T14:55:52.069Z,46.07
2018-09-08T14:58:55.748Z,46.59
2018-09-08T15:01:59.679Z,46.94
2018-09-08T15:05:03.455Z,46.46
2018-09-08T15:08:07.222Z,46.47
2018-09-08T15:11:11.358Z,45.75
2018-09-08T15:14:15.109Z,44.96
2018-09-08T15:17:18.745Z,45.98
2018-09-08T15:20:22.438Z,45.46
2018-09-08T15:23:26.185Z,47.10
2018-09-08T15:26:29.995Z,45.96
2018-09-08T15:29:33.628Z,45.39
2018-09-08T15:32:37.384Z,45.24
2018-09-08T15:35:41.055Z,45.14
2018-09-08T15:38:44.855Z,44.17
2018-09-08T15:41:48.563Z,44.31
2018-09-08T15:44:52.220Z,45.54
2018-09-08T15:47:55.890Z,44.96
2018-09-08T15:50:59.716Z,46.08
2018-09-08T15:54:03.356Z,45.98
2018-09-08T15:57:07.112Z,47.49
2018-09-08T16:00:10.811Z,45.92
2018-09-08T16:03:14.573Z,46.06
2018-09-08T16:06:18.275Z,45.68
2018-09-08T16:09:21.954Z,46.16
2018-09-08T16:12:25.589Z,46.12
2018-09-08T16:15:29.309Z,45.62
2018-09-08T16:18:33.082Z,45.72
2018-09-08T16:21:36.910Z,46.38
2018-09-08T16:24:40.706Z,47.33
2018-09-08T16:27:44.437Z,45.80
2018-09-08T16:30:48.272Z,46.50
2018-09-08T16:33:51.961Z,45.97
2018-09-08T16:36:55.676Z,46.57
2018-09-08T16:39:59.464Z,46.72
2018-09-08T16:43:03.190Z,47.07
2018-09-08T16:46:07.244Z,47.56
2018-09-08T16:49:10.971Z,47.65
2018-09-08T16:52:14.838Z,47.81
2018-09-08T16:55:18.605Z,48.46
2018-09-08T16:58:22.316Z,48.58
2018-09-08T17:01:26.000Z,48.44
2018-09-08T17:04:30.986Z,48.74
2018-09-08T17:07:34.705Z,49.32
2018-09-08T17:10:38.395Z,49.94
2018-09-08T17:13:42.144Z,50.32
2018-09-08T17:16:45.921Z,49.46
2018-09-08T17:19:49.750Z,50.03
2018-09-08T17:22:54.296Z,50.30
2018-09-08T17:25:58.084Z,51.17
2018-09-08T17:29:01.949Z,51.00
2018-09-08T17:32:05.710Z,51.55
2018-09-08T17:35:09.397Z,53.08
2018-09-08T17:38:13.082Z,53.44
2018-09-08T17:41:16.900Z,53.64
2018-09-08T17:44:20.702Z,53.70
2018-09-08T17:47:24.491Z,53.35
2018-09-08T17:50:28.201Z,54.98
2018-09-08T17:53:32.073Z,54.83
2018-09-08T17:56:35.744Z,54.86
2018-09-08T17:59:39.436Z,54.01
2018-09-08T18:02:43.476Z,55.15
2018-09-08T18:05:47.337Z,55.91
2018-09-08T18:08:50.950Z,57.34
2018-09-08T18:11:54.671Z,57.87
2018-09-08T18:14:58.369Z,58.05
2018-09-08T18:18:02.042Z,58.95
2018-09-08T18:21:05.928Z,59.94
2018-09-08T18:24:09.731Z,61.02
2018-09-08T18:27:13.363Z,61.37
2018-09-08T18:30:17.097Z,61.36
2018-09-08T18:33:20.769Z,59.84
2018-09-08T18:36:24.992Z,61.50
2018-09-08T18:39:28.657Z,61.37
2018-09-08T18:42:32.422Z,61.75
2018-09-08T18:45:36.117Z,61.23
2018-09-08T18:48:39.908Z,61.63
2018-09-08T18:51:44.263Z,62.02
2018-09-08T18:54:48.016Z,61.23
2018-09-08T18:57:51.896Z,60.62
2018-09-08T19:00:55.699Z,61.23
2018-09-08T19:03:59.420Z,60.14
2018-09-08T19:07:03.243Z,60.56
2018-09-08T19:10:07.492Z,62.10
2018-09-08T19:13:11.285Z,63.55
2018-09-08T19:16:15.222Z,62.11
2018-09-08T19:19:19.101Z,62.18
2018-09-08T19:22:23.040Z,62.61
2018-09-08T19:25:26.935Z,61.92
2018-09-08T19:28:30.822Z,62.41
2018-09-08T19:31:34.722Z,62.13
2018-09-08T19:34:38.628Z,62.55
2018-09-08T19:37:42.385Z,62.61
2018-09-08T19:40:47.227Z,62.71
2018-09-08T19:43:51.072Z,63.14
2018-09-08T19:47:00.671Z,64.93
2018-09-08T19:50:04.593Z,64.03
2018-09-08T19:53:13.473Z,64.30
2018-09-08T19:56:17.400Z,64.64
2018-09-08T19:59:21.326Z,64.80
2018-09-08T20:02:25.161Z,64.62
2018-09-08T20:05:28.911Z,65.84
2018-09-08T20:08:32.808Z,65.29
2018-09-08T20:11:36.458Z,66.21
2018-09-08T20:14:40.297Z,66.66
2018-09-08T20:17:43.952Z,66.64
2018-09-08T20:20:47.601Z,66.43
2018-09-08T20:23:51.393Z,66.38
2018-09-08T20:26:55.174Z,65.56
2018-09-08T20:29:58.868Z,66.35
2018-09-08T20:33:02.613Z,65.89
2018-09-08T20:36:06.361Z,65.59
2018-09-08T20:39:10.148Z,66.54
2018-09-08T20:42:14.302Z,66.51
2018-09-08T20:45:17.986Z,66.73
2018-09-08T20:48:21.691Z,67.78
2018-09-08T20:51:25.792Z,66.51
2018-09-08T20:54:29.513Z,65.33
2018-09-08T20:57:33.173Z,65.74
2018-09-08T21:00:37.916Z,65.68
2018-09-08T21:03:41.706Z,65.94
2018-09-08T21:06:45.535Z,65.48
2018-09-08T21:09:49.272Z,65.29
2018-09-08T21:12:53.021Z,65.85
2018-09-08T21:15:56.656Z,64.44
2018-09-08T21:19:00.625Z,65.87
2018-09-08T21:22:05.528Z,64.98
2018-09-08T21:25:09.294Z,64.87
2018-09-08T21:28:14.794Z,65.09
2018-09-08T21:31:20.856Z,65.06
2018-09-08T21:34:25.490Z,65.73
2018-09-08T21:37:30.232Z,65.84
2018-09-08T21:40:33.903Z,65.80
2018-09-08T21:43:37.783Z,66.46
2018-09-08T21:46:41.544Z,66.83
2018-09-08T21:49:45.268Z,65.99
2018-09-08T21:52:49.133Z,66.50
2018-09-08T21:55:52.902Z,66.38
2018-09-08T21:58:56.614Z,66.44
2018-09-08T22:02:00.887Z,65.86
2018-09-08T22:05:05.472Z,66.61
2018-09-08T22:08:09.319Z,66.35
2018-09-08T22:11:13.102Z,67.74
2018-09-08T22:14:16.849Z,66.77
2018-09-08T22:17:20.516Z,67.14
2018-09-08T22:20:24.395Z,67.07
2018-09-08T22:23:28.094Z,66.92
2018-09-08T22:26:31.813Z,66.14
2018-09-08T22:29:35.739Z,65.22
2018-09-08T22:32:39.455Z,65.51
2018-09-08T22:35:43.184Z,65.96
2018-09-08T22:38:46.945Z,66.24
2018-09-08T22:41:50.628Z,67.08
2018-09-08T22:44:54.469Z,66.98
2018-09-08T22:47:58.184Z,65.68
2018-09-08T22:51:01.920Z,66.83
2018-09-08T22:54:05.599Z,67.01
2018-09-08T22:57:09.371Z,66.03
2018-09-08T23:00:13.114Z,66.53
2018-09-08T23:03:16.785Z,66.45
2018-09-08T23:06:20.598Z,67.57
2018-09-08T23:09:24.322Z,67.63
2018-09-08T23:12:28.089Z,67.82
2018-09-08T23:15:31.874Z,67.98
2018-09-08T23:18:35.452Z,68.91
2018-09-08T23:21:39.272Z,68.32
2018-09-08T23:24:42.890Z,68.07
2018-09-08T23:27:46.608Z,68.29
2018-09-08T23:30:50.322Z,66.48
2018-09-08T23:33:54.006Z,67.20
2018-09-08T23:36:57.747Z,68.05
2018-09-08T23:40:01.470Z,68.71
2018-09-08T23:43:05.140Z,68.15
2018-09-08T23:46:08.919Z,68.47
2018-09-08T23:49:12.544Z,69.26
2018-09-08T23:52:16.344Z,68.95
2018-09-08T23:55:19.980Z,68.21
2018-09-08T23:58:23.686Z,68.55
